sensor_id;sensor_type;location;lat;lon;timestamp;temperature;humidity
8093;DHT22;4089;52.420;13.334;2024-03-17T00:01:38;4.80;99.90
8093;DHT22;4089;52.420;13.334;2024-03-17T00:04:07;4.80;99.90
8093;DHT22;4089;52.420;13.334;2024-03-17T00:06:33;4.80;99.90
8093;DHT22;4089;52.420;13.334;2024-03-17T00:08:59;4.80;99.90
8093;DHT22;4089;52.420;13.334;2024-03-17T00:11:26;4.80;99.90
8093;DHT22;4089;52.420;13.334;2024-03-17T00:13:52;4.80;99.90
8093;DHT22;4089;52.420;13.334;2024-03-17T00:16:18;4.70;99.90
8093;DHT22;4089;52.420;13.334;2024-03-17T00:18:45;4.70;99.90
8093;DHT22;4089;52.420;13.334;2024-03-17T00:21:12;4.70;99.90
8093;DHT22;4089;52.420;13.334;2024-03-17T00:23:39;4.70;99.90
8093;DHT22;4089;52.420;13.334;2024-03-17T00:26:05;4.70;99.90
8093;DHT22;4089;52.420;13.334;2024-03-17T00:28:30;4.70;99.90
8093;DHT22;4089;52.420;13.334;2024-03-17T00:30:56;4.70;99.90
8093;DHT22;4089;52.420;13.334;2024-03-17T00:33:22;4.70;99.90
8093;DHT22;4089;52.420;13.334;2024-03-17T00:35:50;4.70;99.90
8093;DHT22;4089;52.420;13.334;2024-03-17T00:38:16;4.60;99.90
8093;DHT22;4089;52.420;13.334;2024-03-17T00:40:42;4.60;99.90
8093;DHT22;4089;52.420;13.334;2024-03-17T00:43:10;4.60;99.90
8093;DHT22;4089;52.420;13.334;2024-03-17T00:45:37;4.60;99.90
8093;DHT22;4089;52.420;13.334;2024-03-17T00:48:03;4.60;99.90
8093;DHT22;4089;52.420;13.334;2024-03-17T00:50:31;4.60;99.90
8093;DHT22;4089;52.420;13.334;2024-03-17T00:52:57;4.60;99.90
8093;DHT22;4089;52.420;13.334;2024-03-17T00:55:23;4.60;99.90
8093;DHT22;4089;52.420;13.334;2024-03-17T00:57:49;4.60;99.90
8093;DHT22;4089;52.420;13.334;2024-03-17T01:00:15;4.50;99.90
8093;DHT22;4089;52.420;13.334;2024-03-17T01:02:41;4.50;99.90
8093;DHT22;4089;52.420;13.334;2024-03-17T01:05:07;4.50;99.90
8093;DHT22;4089;52.420;13.334;2024-03-17T01:07:33;4.40;99.90
8093;DHT22;4089;52.420;13.334;2024-03-17T01:10:00;4.40;99.90
8093;DHT22;4089;52.420;13.334;2024-03-17T01:12:26;4.40;99.90
8093;DHT22;4089;52.420;13.334;2024-03-17T01:14:52;4.40;99.90
8093;DHT22;4089;52.420;13.334;2024-03-17T01:17:18;4.40;99.90
8093;DHT22;4089;52.420;13.334;2024-03-17T01:19:45;4.40;99.90
8093;DHT22;4089;52.420;13.334;2024-03-17T01:22:11;4.30;99.90
8093;DHT22;4089;52.420;13.334;2024-03-17T01:24:37;4.30;99.90
8093;DHT22;4089;52.420;13.334;2024-03-17T01:27:07;4.30;99.90
8093;DHT22;4089;52.420;13.334;2024-03-17T01:29:32;4.30;99.90
8093;DHT22;4089;52.420;13.334;2024-03-17T01:31:58;4.20;99.90
8093;DHT22;4089;52.420;13.334;2024-03-17T01:34:24;4.10;99.90
8093;DHT22;4089;52.420;13.334;2024-03-17T01:36:50;4.10;99.90
8093;DHT22;4089;52.420;13.334;2024-03-17T01:39:16;4.10;99.90
8093;DHT22;4089;52.420;13.334;2024-03-17T01:41:43;4.10;99.90
8093;DHT22;4089;52.420;13.334;2024-03-17T01:44:26;4.00;99.90
8093;DHT22;4089;52.420;13.334;2024-03-17T01:46:52;4.00;99.90
8093;DHT22;4089;52.420;13.334;2024-03-17T01:49:20;3.90;99.90
8093;DHT22;4089;52.420;13.334;2024-03-17T01:51:47;3.90;99.90
8093;DHT22;4089;52.420;13.334;2024-03-17T01:54:14;3.90;99.90
8093;DHT22;4089;52.420;13.334;2024-03-17T01:56:41;3.80;99.90
8093;DHT22;4089;52.420;13.334;2024-03-17T01:59:08;3.80;99.90
8093;DHT22;4089;52.420;13.334;2024-03-17T02:01:38;3.80;99.90
8093;DHT22;4089;52.420;13.334;2024-03-17T02:04:05;3.80;99.90
8093;DHT22;4089;52.420;13.334;2024-03-17T02:06:31;3.80;99.90
8093;DHT22;4089;52.420;13.334;2024-03-17T02:08:57;3.70;99.90
8093;DHT22;4089;52.420;13.334;2024-03-17T02:11:28;3.70;99.90
8093;DHT22;4089;52.420;13.334;2024-03-17T02:13:55;3.70;99.90
8093;DHT22;4089;52.420;13.334;2024-03-17T02:16:22;3.70;99.90
8093;DHT22;4089;52.420;13.334;2024-03-17T02:18:49;3.70;99.90
8093;DHT22;4089;52.420;13.334;2024-03-17T02:21:15;3.60;99.90
8093;DHT22;4089;52.420;13.334;2024-03-17T02:23:42;3.60;99.90
8093;DHT22;4089;52.420;13.334;2024-03-17T02:26:08;3.60;99.90
8093;DHT22;4089;52.420;13.334;2024-03-17T02:28:41;3.60;99.90
8093;DHT22;4089;52.420;13.334;2024-03-17T02:31:09;3.60;99.90
8093;DHT22;4089;52.420;13.334;2024-03-17T02:33:35;3.60;99.90
8093;DHT22;4089;52.420;13.334;2024-03-17T02:36:02;3.50;99.90
8093;DHT22;4089;52.420;13.334;2024-03-17T02:38:40;3.50;99.90
8093;DHT22;4089;52.420;13.334;2024-03-17T02:41:26;3.40;99.90
8093;DHT22;4089;52.420;13.334;2024-03-17T02:43:52;3.40;99.90
8093;DHT22;4089;52.420;13.334;2024-03-17T02:46:19;3.40;99.90
8093;DHT22;4089;52.420;13.334;2024-03-17T02:48:50;3.40;99.90
8093;DHT22;4089;52.420;13.334;2024-03-17T02:51:18;3.40;99.90
8093;DHT22;4089;52.420;13.334;2024-03-17T02:53:46;3.30;99.90
8093;DHT22;4089;52.420;13.334;2024-03-17T02:56:13;3.30;99.90
8093;DHT22;4089;52.420;13.334;2024-03-17T02:58:42;3.30;99.90
8093;DHT22;4089;52.420;13.334;2024-03-17T03:01:09;3.30;99.90
8093;DHT22;4089;52.420;13.334;2024-03-17T03:03:38;3.30;99.90
8093;DHT22;4089;52.420;13.334;2024-03-17T03:06:04;3.30;99.90
8093;DHT22;4089;52.420;13.334;2024-03-17T03:08:35;3.30;99.90
8093;DHT22;4089;52.420;13.334;2024-03-17T03:11:04;3.30;99.90
8093;DHT22;4089;52.420;13.334;2024-03-17T03:13:30;3.30;99.90
8093;DHT22;4089;52.420;13.334;2024-03-17T03:15:55;3.30;99.90
8093;DHT22;4089;52.420;13.334;2024-03-17T03:18:21;3.20;99.90
8093;DHT22;4089;52.420;13.334;2024-03-17T03:20:51;3.20;99.90
8093;DHT22;4089;52.420;13.334;2024-03-17T03:23:20;3.20;99.90
8093;DHT22;4089;52.420;13.334;2024-03-17T03:25:46;3.20;99.90
8093;DHT22;4089;52.420;13.334;2024-03-17T03:28:13;3.20;99.90
8093;DHT22;4089;52.420;13.334;2024-03-17T03:30:39;3.20;99.90
8093;DHT22;4089;52.420;13.334;2024-03-17T03:33:05;3.10;99.90
8093;DHT22;4089;52.420;13.334;2024-03-17T03:35:31;3.10;99.90
8093;DHT22;4089;52.420;13.334;2024-03-17T03:37:58;3.10;99.90
8093;DHT22;4089;52.420;13.334;2024-03-17T03:40:23;3.10;99.90
8093;DHT22;4089;52.420;13.334;2024-03-17T03:42:53;3.10;99.90
8093;DHT22;4089;52.420;13.334;2024-03-17T03:45:19;3.10;99.90
8093;DHT22;4089;52.420;13.334;2024-03-17T03:47:46;3.00;99.90
8093;DHT22;4089;52.420;13.334;2024-03-17T03:50:15;3.00;99.90
8093;DHT22;4089;52.420;13.334;2024-03-17T03:52:41;3.10;99.90
8093;DHT22;4089;52.420;13.334;2024-03-17T03:55:12;3.00;99.90
8093;DHT22;4089;52.420;13.334;2024-03-17T03:57:42;3.00;99.90
8093;DHT22;4089;52.420;13.334;2024-03-17T04:00:08;3.00;99.90
8093;DHT22;4089;52.420;13.334;2024-03-17T04:02:40;2.90;99.90
8093;DHT22;4089;52.420;13.334;2024-03-17T04:05:07;2.90;99.90
8093;DHT22;4089;52.420;13.334;2024-03-17T04:07:33;2.90;99.90
8093;DHT22;4089;52.420;13.334;2024-03-17T04:10:00;2.90;99.90
8093;DHT22;4089;52.420;13.334;2024-03-17T04:12:27;2.90;99.90
8093;DHT22;4089;52.420;13.334;2024-03-17T04:14:53;2.90;99.90
8093;DHT22;4089;52.420;13.334;2024-03-17T04:17:20;2.90;99.90
8093;DHT22;4089;52.420;13.334;2024-03-17T04:19:50;2.90;99.90
8093;DHT22;4089;52.420;13.334;2024-03-17T04:22:17;2.90;99.90
8093;DHT22;4089;52.420;13.334;2024-03-17T04:24:47;2.80;99.90
8093;DHT22;4089;52.420;13.334;2024-03-17T04:27:14;2.80;99.90
8093;DHT22;4089;52.420;13.334;2024-03-17T04:29:41;2.90;99.90
8093;DHT22;4089;52.420;13.334;2024-03-17T04:32:07;2.80;99.90
8093;DHT22;4089;52.420;13.334;2024-03-17T04:34:33;2.80;99.90
8093;DHT22;4089;52.420;13.334;2024-03-17T04:36:58;2.80;99.90
8093;DHT22;4089;52.420;13.334;2024-03-17T04:39:25;2.80;99.90
8093;DHT22;4089;52.420;13.334;2024-03-17T04:41:51;2.80;99.90
8093;DHT22;4089;52.420;13.334;2024-03-17T04:44:17;2.80;99.90
8093;DHT22;4089;52.420;13.334;2024-03-17T04:46:43;2.80;99.90
8093;DHT22;4089;52.420;13.334;2024-03-17T04:49:09;2.80;99.90
8093;DHT22;4089;52.420;13.334;2024-03-17T04:51:35;2.80;99.90
8093;DHT22;4089;52.420;13.334;2024-03-17T04:54:01;2.80;99.90
8093;DHT22;4089;52.420;13.334;2024-03-17T04:56:31;2.80;99.90
8093;DHT22;4089;52.420;13.334;2024-03-17T04:58:57;2.90;99.90
8093;DHT22;4089;52.420;13.334;2024-03-17T05:01:23;2.80;99.90
8093;DHT22;4089;52.420;13.334;2024-03-17T05:03:53;2.80;99.90
8093;DHT22;4089;52.420;13.334;2024-03-17T05:06:19;2.80;99.90
8093;DHT22;4089;52.420;13.334;2024-03-17T05:08:45;2.80;99.90
8093;DHT22;4089;52.420;13.334;2024-03-17T05:11:11;2.80;99.90
8093;DHT22;4089;52.420;13.334;2024-03-17T05:13:37;2.80;99.90
8093;DHT22;4089;52.420;13.334;2024-03-17T05:16:04;2.80;99.90
8093;DHT22;4089;52.420;13.334;2024-03-17T05:18:30;2.80;99.90
8093;DHT22;4089;52.420;13.334;2024-03-17T05:21:02;2.70;99.90
8093;DHT22;4089;52.420;13.334;2024-03-17T05:23:30;2.80;99.90
8093;DHT22;4089;52.420;13.334;2024-03-17T05:25:57;2.70;99.90
8093;DHT22;4089;52.420;13.334;2024-03-17T05:28:24;2.80;99.90
8093;DHT22;4089;52.420;13.334;2024-03-17T05:30:50;2.70;99.90
8093;DHT22;4089;52.420;13.334;2024-03-17T05:33:19;2.70;99.90
8093;DHT22;4089;52.420;13.334;2024-03-17T05:35:55;2.70;99.90
8093;DHT22;4089;52.420;13.334;2024-03-17T05:38:22;2.70;99.90
8093;DHT22;4089;52.420;13.334;2024-03-17T05:43:25;2.70;99.90
8093;DHT22;4089;52.420;13.334;2024-03-17T05:45:57;2.70;99.90
8093;DHT22;4089;52.420;13.334;2024-03-17T05:48:23;2.70;99.90
8093;DHT22;4089;52.420;13.334;2024-03-17T05:50:50;2.70;99.90
8093;DHT22;4089;52.420;13.334;2024-03-17T05:53:21;2.70;99.90
8093;DHT22;4089;52.420;13.334;2024-03-17T05:55:50;2.80;99.90
8093;DHT22;4089;52.420;13.334;2024-03-17T05:58:16;2.70;99.90
8093;DHT22;4089;52.420;13.334;2024-03-17T06:00:42;2.80;99.90
8093;DHT22;4089;52.420;13.334;2024-03-17T06:03:09;2.80;99.90
8093;DHT22;4089;52.420;13.334;2024-03-17T06:05:37;2.90;99.90
8093;DHT22;4089;52.420;13.334;2024-03-17T06:08:05;2.90;99.90
8093;DHT22;4089;52.420;13.334;2024-03-17T06:10:32;2.90;99.90
8093;DHT22;4089;52.420;13.334;2024-03-17T06:12:59;2.90;99.90
8093;DHT22;4089;52.420;13.334;2024-03-17T06:15:25;3.00;99.90
8093;DHT22;4089;52.420;13.334;2024-03-17T06:17:52;3.10;99.90
8093;DHT22;4089;52.420;13.334;2024-03-17T06:20:19;3.10;99.90
8093;DHT22;4089;52.420;13.334;2024-03-17T06:22:45;3.20;99.90
8093;DHT22;4089;52.420;13.334;2024-03-17T06:25:12;3.20;99.90
8093;DHT22;4089;52.420;13.334;2024-03-17T06:27:38;3.30;99.90
8093;DHT22;4089;52.420;13.334;2024-03-17T06:30:04;3.30;99.90
8093;DHT22;4089;52.420;13.334;2024-03-17T06:32:31;3.30;99.90
8093;DHT22;4089;52.420;13.334;2024-03-17T06:34:57;3.40;99.90
8093;DHT22;4089;52.420;13.334;2024-03-17T06:37:24;3.50;99.90
8093;DHT22;4089;52.420;13.334;2024-03-17T06:39:50;3.60;99.90
8093;DHT22;4089;52.420;13.334;2024-03-17T06:42:16;3.70;99.90
8093;DHT22;4089;52.420;13.334;2024-03-17T06:44:42;3.70;99.90
8093;DHT22;4089;52.420;13.334;2024-03-17T06:47:08;3.70;99.90
8093;DHT22;4089;52.420;13.334;2024-03-17T06:49:34;3.80;99.90
8093;DHT22;4089;52.420;13.334;2024-03-17T06:52:00;3.90;99.90
8093;DHT22;4089;52.420;13.334;2024-03-17T06:54:26;4.00;99.90
8093;DHT22;4089;52.420;13.334;2024-03-17T06:56:52;4.10;99.90
8093;DHT22;4089;52.420;13.334;2024-03-17T06:59:18;4.10;99.90
8093;DHT22;4089;52.420;13.334;2024-03-17T07:01:46;4.20;99.90
8093;DHT22;4089;52.420;13.334;2024-03-17T07:04:16;4.20;99.90
8093;DHT22;4089;52.420;13.334;2024-03-17T07:06:42;4.30;99.90
8093;DHT22;4089;52.420;13.334;2024-03-17T07:09:09;4.40;99.90
8093;DHT22;4089;52.420;13.334;2024-03-17T07:11:36;4.50;99.90
8093;DHT22;4089;52.420;13.334;2024-03-17T07:14:02;4.50;99.90
8093;DHT22;4089;52.420;13.334;2024-03-17T07:16:28;4.40;99.90
8093;DHT22;4089;52.420;13.334;2024-03-17T07:18:54;4.40;99.90
8093;DHT22;4089;52.420;13.334;2024-03-17T07:21:23;4.50;99.90
8093;DHT22;4089;52.420;13.334;2024-03-17T07:23:49;4.60;99.90
8093;DHT22;4089;52.420;13.334;2024-03-17T07:26:15;4.70;99.90
8093;DHT22;4089;52.420;13.334;2024-03-17T07:28:41;4.70;99.90
8093;DHT22;4089;52.420;13.334;2024-03-17T07:31:10;4.70;99.90
8093;DHT22;4089;52.420;13.334;2024-03-17T07:33:37;4.80;99.90
8093;DHT22;4089;52.420;13.334;2024-03-17T07:36:03;4.80;99.90
8093;DHT22;4089;52.420;13.334;2024-03-17T07:38:31;4.90;99.90
8093;DHT22;4089;52.420;13.334;2024-03-17T07:41:02;5.00;99.90
8093;DHT22;4089;52.420;13.334;2024-03-17T07:43:30;5.10;99.90
8093;DHT22;4089;52.420;13.334;2024-03-17T07:48:23;5.20;99.90
8093;DHT22;4089;52.420;13.334;2024-03-17T07:51:15;5.20;99.90
8093;DHT22;4089;52.420;13.334;2024-03-17T07:53:46;5.20;99.90
8093;DHT22;4089;52.420;13.334;2024-03-17T07:56:14;5.40;99.90
8093;DHT22;4089;52.420;13.334;2024-03-17T07:58:41;5.50;99.90
8093;DHT22;4089;52.420;13.334;2024-03-17T08:01:09;5.60;99.90
8093;DHT22;4089;52.420;13.334;2024-03-17T08:03:46;5.70;99.90
8093;DHT22;4089;52.420;13.334;2024-03-17T08:06:15;5.70;99.90
8093;DHT22;4089;52.420;13.334;2024-03-17T08:08:40;5.70;99.90
8093;DHT22;4089;52.420;13.334;2024-03-17T08:11:07;5.50;99.90
8093;DHT22;4089;52.420;13.334;2024-03-17T08:13:33;5.60;99.90
8093;DHT22;4089;52.420;13.334;2024-03-17T08:16:07;5.80;99.90
8093;DHT22;4089;52.420;13.334;2024-03-17T08:18:36;5.90;99.90
8093;DHT22;4089;52.420;13.334;2024-03-17T08:21:03;5.80;99.90
8093;DHT22;4089;52.420;13.334;2024-03-17T08:23:36;5.80;99.90
8093;DHT22;4089;52.420;13.334;2024-03-17T08:26:07;5.90;99.90
8093;DHT22;4089;52.420;13.334;2024-03-17T08:28:33;5.90;99.90
8093;DHT22;4089;52.420;13.334;2024-03-17T08:31:03;6.10;99.90
8093;DHT22;4089;52.420;13.334;2024-03-17T08:33:30;6.20;99.90
8093;DHT22;4089;52.420;13.334;2024-03-17T08:38:29;6.10;99.90
8093;DHT22;4089;52.420;13.334;2024-03-17T08:40:55;6.30;99.90
8093;DHT22;4089;52.420;13.334;2024-03-17T08:43:22;6.40;99.90
8093;DHT22;4089;52.420;13.334;2024-03-17T08:46:03;6.40;99.90
8093;DHT22;4089;52.420;13.334;2024-03-17T08:48:32;6.50;99.90
8093;DHT22;4089;52.420;13.334;2024-03-17T08:50:59;6.60;99.90
8093;DHT22;4089;52.420;13.334;2024-03-17T08:53:26;6.70;99.90
8093;DHT22;4089;52.420;13.334;2024-03-17T08:55:59;6.70;99.90
8093;DHT22;4089;52.420;13.334;2024-03-17T08:58:26;6.80;99.90
8093;DHT22;4089;52.420;13.334;2024-03-17T09:00:52;6.90;99.90
8093;DHT22;4089;52.420;13.334;2024-03-17T09:03:18;7.00;99.90
8093;DHT22;4089;52.420;13.334;2024-03-17T09:05:47;7.10;99.90
8093;DHT22;4089;52.420;13.334;2024-03-17T09:08:18;7.00;99.90
8093;DHT22;4089;52.420;13.334;2024-03-17T09:10:47;7.00;99.90
8093;DHT22;4089;52.420;13.334;2024-03-17T09:13:14;7.00;99.90
8093;DHT22;4089;52.420;13.334;2024-03-17T09:15:41;7.00;99.90
8093;DHT22;4089;52.420;13.334;2024-03-17T09:18:14;7.10;99.90
8093;DHT22;4089;52.420;13.334;2024-03-17T09:20:41;7.10;99.90
8093;DHT22;4089;52.420;13.334;2024-03-17T09:23:09;7.10;99.90
8093;DHT22;4089;52.420;13.334;2024-03-17T09:25:35;7.20;99.90
8093;DHT22;4089;52.420;13.334;2024-03-17T09:28:02;7.20;99.90
8093;DHT22;4089;52.420;13.334;2024-03-17T09:30:28;7.20;99.90
8093;DHT22;4089;52.420;13.334;2024-03-17T09:32:54;7.30;99.90
8093;DHT22;4089;52.420;13.334;2024-03-17T09:35:20;7.20;99.00
8093;DHT22;4089;52.420;13.334;2024-03-17T09:37:46;7.30;99.30
8093;DHT22;4089;52.420;13.334;2024-03-17T09:40:15;7.50;99.10
8093;DHT22;4089;52.420;13.334;2024-03-17T09:42:42;7.40;97.70
8093;DHT22;4089;52.420;13.334;2024-03-17T09:45:10;7.20;97.90
8093;DHT22;4089;52.420;13.334;2024-03-17T09:47:39;7.40;98.70
8093;DHT22;4089;52.420;13.334;2024-03-17T09:50:13;7.50;97.20
8093;DHT22;4089;52.420;13.334;2024-03-17T09:52:42;7.60;97.30
8093;DHT22;4089;52.420;13.334;2024-03-17T09:55:17;7.70;96.40
8093;DHT22;4089;52.420;13.334;2024-03-17T09:57:44;7.80;96.70
8093;DHT22;4089;52.420;13.334;2024-03-17T10:00:13;8.00;96.20
8093;DHT22;4089;52.420;13.334;2024-03-17T10:02:47;8.00;96.10
8093;DHT22;4089;52.420;13.334;2024-03-17T10:05:23;8.30;96.10
8093;DHT22;4089;52.420;13.334;2024-03-17T10:07:51;8.40;95.70
8093;DHT22;4089;52.420;13.334;2024-03-17T10:10:18;8.50;94.20
8093;DHT22;4089;52.420;13.334;2024-03-17T10:12:54;8.10;93.30
8093;DHT22;4089;52.420;13.334;2024-03-17T10:15:20;8.20;94.40
8093;DHT22;4089;52.420;13.334;2024-03-17T10:17:47;8.30;94.20
8093;DHT22;4089;52.420;13.334;2024-03-17T10:20:21;8.40;92.70
8093;DHT22;4089;52.420;13.334;2024-03-17T10:23:07;8.40;93.30
8093;DHT22;4089;52.420;13.334;2024-03-17T10:25:39;8.60;92.10
8093;DHT22;4089;52.420;13.334;2024-03-17T10:28:12;8.70;92.00
8093;DHT22;4089;52.420;13.334;2024-03-17T10:30:40;8.60;91.80
8093;DHT22;4089;52.420;13.334;2024-03-17T10:33:06;8.50;91.60
8093;DHT22;4089;52.420;13.334;2024-03-17T10:35:35;8.40;91.90
8093;DHT22;4089;52.420;13.334;2024-03-17T10:38:05;8.30;91.50
8093;DHT22;4089;52.420;13.334;2024-03-17T10:40:32;7.90;91.20
8093;DHT22;4089;52.420;13.334;2024-03-17T10:43:05;7.80;91.50
8093;DHT22;4089;52.420;13.334;2024-03-17T10:45:33;7.90;91.70
8093;DHT22;4089;52.420;13.334;2024-03-17T10:48:07;8.30;91.90
8093;DHT22;4089;52.420;13.334;2024-03-17T10:50:38;8.60;91.70
8093;DHT22;4089;52.420;13.334;2024-03-17T10:53:06;8.40;90.40
8093;DHT22;4089;52.420;13.334;2024-03-17T10:55:45;8.80;90.10
8093;DHT22;4089;52.420;13.334;2024-03-17T10:58:34;8.80;89.10
8093;DHT22;4089;52.420;13.334;2024-03-17T11:01:04;8.80;88.00
8093;DHT22;4089;52.420;13.334;2024-03-17T11:03:31;9.20;88.60
8093;DHT22;4089;52.420;13.334;2024-03-17T11:05:58;9.50;83.40
8093;DHT22;4089;52.420;13.334;2024-03-17T11:08:25;9.50;82.60
8093;DHT22;4089;52.420;13.334;2024-03-17T11:10:52;9.30;83.30
8093;DHT22;4089;52.420;13.334;2024-03-17T11:13:28;9.30;82.00
8093;DHT22;4089;52.420;13.334;2024-03-17T11:15:55;9.40;85.70
8093;DHT22;4089;52.420;13.334;2024-03-17T11:23:29;8.60;84.50
8093;DHT22;4089;52.420;13.334;2024-03-17T11:25:55;8.50;85.50
8093;DHT22;4089;52.420;13.334;2024-03-17T11:28:44;8.70;82.20
8093;DHT22;4089;52.420;13.334;2024-03-17T11:31:49;8.80;81.40
8093;DHT22;4089;52.420;13.334;2024-03-17T11:34:35;8.80;82.60
8093;DHT22;4089;52.420;13.334;2024-03-17T11:37:03;9.00;81.60
8093;DHT22;4089;52.420;13.334;2024-03-17T11:42:17;9.70;81.40
8093;DHT22;4089;52.420;13.334;2024-03-17T11:44:55;9.80;78.90
8093;DHT22;4089;52.420;13.334;2024-03-17T11:47:21;9.40;79.20
8093;DHT22;4089;52.420;13.334;2024-03-17T11:49:47;9.40;78.00
8093;DHT22;4089;52.420;13.334;2024-03-17T11:52:14;9.40;77.10
8093;DHT22;4089;52.420;13.334;2024-03-17T11:54:45;9.20;76.30
8093;DHT22;4089;52.420;13.334;2024-03-17T11:57:13;9.20;76.20
8093;DHT22;4089;52.420;13.334;2024-03-17T11:59:40;9.00;75.60
8093;DHT22;4089;52.420;13.334;2024-03-17T12:04:44;8.80;79.10
8093;DHT22;4089;52.420;13.334;2024-03-17T12:07:15;8.90;78.00
8093;DHT22;4089;52.420;13.334;2024-03-17T12:09:42;8.90;78.20
8093;DHT22;4089;52.420;13.334;2024-03-17T12:12:11;8.90;77.90
8093;DHT22;4089;52.420;13.334;2024-03-17T12:14:40;8.70;76.10
8093;DHT22;4089;52.420;13.334;2024-03-17T12:17:10;8.70;73.80
8093;DHT22;4089;52.420;13.334;2024-03-17T12:19:37;8.70;73.50
8093;DHT22;4089;52.420;13.334;2024-03-17T12:22:06;8.70;75.00
8093;DHT22;4089;52.420;13.334;2024-03-17T12:24:36;8.50;75.80
8093;DHT22;4089;52.420;13.334;2024-03-17T12:27:05;8.50;77.50
8093;DHT22;4089;52.420;13.334;2024-03-17T12:29:35;8.60;77.00
8093;DHT22;4089;52.420;13.334;2024-03-17T12:34:36;8.50;76.50
8093;DHT22;4089;52.420;13.334;2024-03-17T12:37:03;8.60;75.90
8093;DHT22;4089;52.420;13.334;2024-03-17T12:39:32;8.70;73.90
8093;DHT22;4089;52.420;13.334;2024-03-17T12:44:29;9.10;70.40
8093;DHT22;4089;52.420;13.334;2024-03-17T12:46:56;9.20;68.80
8093;DHT22;4089;52.420;13.334;2024-03-17T12:49:23;9.40;70.80
8093;DHT22;4089;52.420;13.334;2024-03-17T12:51:51;9.50;68.80
8093;DHT22;4089;52.420;13.334;2024-03-17T12:54:22;9.30;69.80
8093;DHT22;4089;52.420;13.334;2024-03-17T12:56:49;9.10;69.30
8093;DHT22;4089;52.420;13.334;2024-03-17T12:59:38;9.00;66.30
8093;DHT22;4089;52.420;13.334;2024-03-17T13:02:23;9.20;65.90
8093;DHT22;4089;52.420;13.334;2024-03-17T13:07:33;9.60;65.40
8093;DHT22;4089;52.420;13.334;2024-03-17T13:09:59;9.40;65.70
8093;DHT22;4089;52.420;13.334;2024-03-17T13:12:25;9.30;65.90
8093;DHT22;4089;52.420;13.334;2024-03-17T13:14:52;9.20;66.30
8093;DHT22;4089;52.420;13.334;2024-03-17T13:17:18;9.30;65.40
8093;DHT22;4089;52.420;13.334;2024-03-17T13:19:47;9.10;64.10
8093;DHT22;4089;52.420;13.334;2024-03-17T13:22:13;9.20;64.90
8093;DHT22;4089;52.420;13.334;2024-03-17T13:24:39;9.10;64.50
8093;DHT22;4089;52.420;13.334;2024-03-17T13:27:05;9.10;65.20
8093;DHT22;4089;52.420;13.334;2024-03-17T13:29:36;9.00;66.10
8093;DHT22;4089;52.420;13.334;2024-03-17T13:32:03;9.00;66.70
8093;DHT22;4089;52.420;13.334;2024-03-17T13:34:29;9.00;65.60
8093;DHT22;4089;52.420;13.334;2024-03-17T13:36:55;9.00;64.20
8093;DHT22;4089;52.420;13.334;2024-03-17T13:39:21;9.20;65.50
8093;DHT22;4089;52.420;13.334;2024-03-17T13:41:47;9.40;65.10
8093;DHT22;4089;52.420;13.334;2024-03-17T13:44:15;9.70;62.90
8093;DHT22;4089;52.420;13.334;2024-03-17T13:46:41;9.80;60.80
8093;DHT22;4089;52.420;13.334;2024-03-17T13:49:08;9.80;59.10
8093;DHT22;4089;52.420;13.334;2024-03-17T13:51:34;9.80;61.00
8093;DHT22;4089;52.420;13.334;2024-03-17T13:54:00;9.60;61.70
8093;DHT22;4089;52.420;13.334;2024-03-17T13:56:26;9.40;62.40
8093;DHT22;4089;52.420;13.334;2024-03-17T13:58:52;9.40;61.30
8093;DHT22;4089;52.420;13.334;2024-03-17T14:01:18;9.20;61.20
8093;DHT22;4089;52.420;13.334;2024-03-17T14:03:45;9.20;60.90
8093;DHT22;4089;52.420;13.334;2024-03-17T14:06:11;9.20;60.80
8093;DHT22;4089;52.420;13.334;2024-03-17T14:08:39;9.40;59.80
8093;DHT22;4089;52.420;13.334;2024-03-17T14:11:05;9.40;59.60
8093;DHT22;4089;52.420;13.334;2024-03-17T14:13:30;9.30;58.80
8093;DHT22;4089;52.420;13.334;2024-03-17T14:15:57;9.30;59.40
8093;DHT22;4089;52.420;13.334;2024-03-17T14:18:23;9.20;58.70
8093;DHT22;4089;52.420;13.334;2024-03-17T14:20:49;9.20;59.60
8093;DHT22;4089;52.420;13.334;2024-03-17T14:23:16;9.30;59.30
8093;DHT22;4089;52.420;13.334;2024-03-17T14:25:42;9.20;59.30
8093;DHT22;4089;52.420;13.334;2024-03-17T14:28:08;9.40;60.10
8093;DHT22;4089;52.420;13.334;2024-03-17T14:30:34;9.60;59.20
8093;DHT22;4089;52.420;13.334;2024-03-17T14:33:00;10.10;57.40
8093;DHT22;4089;52.420;13.334;2024-03-17T14:35:26;10.60;55.90
8093;DHT22;4089;52.420;13.334;2024-03-17T14:37:55;10.80;55.30
8093;DHT22;4089;52.420;13.334;2024-03-17T14:40:24;11.00;55.20
8093;DHT22;4089;52.420;13.334;2024-03-17T14:42:51;11.80;54.10
8093;DHT22;4089;52.420;13.334;2024-03-17T14:45:18;12.30;52.80
8093;DHT22;4089;52.420;13.334;2024-03-17T14:47:44;12.70;51.40
8093;DHT22;4089;52.420;13.334;2024-03-17T14:50:11;13.20;50.80
8093;DHT22;4089;52.420;13.334;2024-03-17T14:52:40;12.80;49.00
8093;DHT22;4089;52.420;13.334;2024-03-17T14:55:11;12.30;49.10
8093;DHT22;4089;52.420;13.334;2024-03-17T14:57:38;11.70;49.20
8093;DHT22;4089;52.420;13.334;2024-03-17T15:00:10;11.50;49.10
8093;DHT22;4089;52.420;13.334;2024-03-17T15:02:48;11.80;48.10
8093;DHT22;4089;52.420;13.334;2024-03-17T15:05:16;12.60;48.20
8093;DHT22;4089;52.420;13.334;2024-03-17T15:07:45;13.30;46.10
8093;DHT22;4089;52.420;13.334;2024-03-17T15:10:11;12.80;44.30
8093;DHT22;4089;52.420;13.334;2024-03-17T15:12:41;13.40;45.60
8093;DHT22;4089;52.420;13.334;2024-03-17T15:15:08;13.40;43.60
8093;DHT22;4089;52.420;13.334;2024-03-17T15:17:34;13.90;41.80
8093;DHT22;4089;52.420;13.334;2024-03-17T15:20:00;14.20;41.40
8093;DHT22;4089;52.420;13.334;2024-03-17T15:22:26;14.20;40.40
8093;DHT22;4089;52.420;13.334;2024-03-17T15:24:53;14.20;39.20
8093;DHT22;4089;52.420;13.334;2024-03-17T15:27:19;14.10;37.90
8093;DHT22;4089;52.420;13.334;2024-03-17T15:29:45;13.50;39.00
8093;DHT22;4089;52.420;13.334;2024-03-17T15:32:10;13.90;39.10
8093;DHT22;4089;52.420;13.334;2024-03-17T15:34:40;13.80;38.70
8093;DHT22;4089;52.420;13.334;2024-03-17T15:37:06;12.80;37.40
8093;DHT22;4089;52.420;13.334;2024-03-17T15:39:34;12.80;39.00
8093;DHT22;4089;52.420;13.334;2024-03-17T15:42:00;13.50;40.30
8093;DHT22;4089;52.420;13.334;2024-03-17T15:44:27;13.90;37.60
8093;DHT22;4089;52.420;13.334;2024-03-17T15:46:53;14.20;36.60
8093;DHT22;4089;52.420;13.334;2024-03-17T15:49:19;13.60;37.40
8093;DHT22;4089;52.420;13.334;2024-03-17T15:51:45;13.90;36.50
8093;DHT22;4089;52.420;13.334;2024-03-17T15:54:12;13.80;37.10
8093;DHT22;4089;52.420;13.334;2024-03-17T15:56:38;14.30;36.60
8093;DHT22;4089;52.420;13.334;2024-03-17T15:59:04;14.90;36.90
8093;DHT22;4089;52.420;13.334;2024-03-17T16:01:30;15.00;34.90
8093;DHT22;4089;52.420;13.334;2024-03-17T16:03:56;13.90;34.20
8093;DHT22;4089;52.420;13.334;2024-03-17T16:06:21;13.50;35.50
8093;DHT22;4089;52.420;13.334;2024-03-17T16:08:49;13.30;36.60
8093;DHT22;4089;52.420;13.334;2024-03-17T16:11:20;13.60;37.40
8093;DHT22;4089;52.420;13.334;2024-03-17T16:13:54;13.50;36.80
8093;DHT22;4089;52.420;13.334;2024-03-17T16:16:21;14.20;38.50
8093;DHT22;4089;52.420;13.334;2024-03-17T16:18:51;13.90;36.60
8093;DHT22;4089;52.420;13.334;2024-03-17T16:21:19;12.80;35.90
8093;DHT22;4089;52.420;13.334;2024-03-17T16:26:25;11.80;38.60
8093;DHT22;4089;52.420;13.334;2024-03-17T16:28:52;11.10;39.40
8093;DHT22;4089;52.420;13.334;2024-03-17T16:31:20;10.60;40.40
8093;DHT22;4089;52.420;13.334;2024-03-17T16:33:47;10.30;41.60